createdAt,value
2022-10-28T00:01:10.039Z,67.09
2022-10-28T00:03:45.809Z,67.17
2022-10-28T00:06:18.733Z,67.23
2022-10-28T00:08:45.641Z,67.02
2022-10-28T00:11:18.326Z,67.12
2022-10-28T00:13:46.156Z,67.16
2022-10-28T00:16:15.860Z,67.14
2022-10-28T00:18:43.325Z,67.17
2022-10-28T00:21:19.731Z,67.07
2022-10-28T00:23:46.921Z,67.17
2022-10-28T00:26:17.297Z,67.21
2022-10-28T00:28:50.661Z,67.16
2022-10-28T00:31:19.589Z,67.25
2022-10-28T00:33:47.315Z,67.23
2022-10-28T00:36:26.035Z,67.48
2022-10-28T00:38:54.577Z,67.24
2022-10-28T00:41:34.703Z,67.30
2022-10-28T00:44:40.271Z,67.35
2022-10-28T00:47:16.579Z,67.32
2022-10-28T00:49:45.758Z,67.40
2022-10-28T00:52:18.706Z,67.29
2022-10-28T00:54:46.132Z,67.32
2022-10-28T00:57:17.617Z,67.39
2022-10-28T00:59:48.849Z,67.36
2022-10-28T01:02:16.235Z,67.35
2022-10-28T01:04:44.254Z,67.51
2022-10-28T01:07:11.546Z,67.46
2022-10-28T01:09:40.682Z,67.31
2022-10-28T01:12:25.355Z,67.36
2022-10-28T01:15:03.883Z,67.49
2022-10-28T01:18:18.220Z,67.53
2022-10-28T01:21:03.819Z,67.50
2022-10-28T01:23:39.364Z,67.58
2022-10-28T01:26:34.909Z,67.50
2022-10-28T01:29:20.684Z,67.62
2022-10-28T01:32:11.564Z,67.48
2022-10-28T01:35:00.901Z,67.54
2022-10-28T01:37:30.557Z,67.76
2022-10-28T01:40:29.714Z,67.65
2022-10-28T01:43:07.981Z,67.62
2022-10-28T01:45:42.428Z,67.60
2022-10-28T01:48:12.786Z,67.69
2022-10-28T01:51:01.378Z,67.61
2022-10-28T01:53:33.992Z,67.73
2022-10-28T01:56:05.701Z,67.74
2022-10-28T01:58:34.150Z,67.73
2022-10-28T02:01:06.168Z,67.72
2022-10-28T02:03:33.034Z,67.63
2022-10-28T02:06:05.192Z,67.88
2022-10-28T02:08:53.093Z,67.99
2022-10-28T02:11:22.742Z,67.85
2022-10-28T02:14:01.923Z,67.94
2022-10-28T02:16:36.181Z,67.94
2022-10-28T02:19:28.660Z,67.96
2022-10-28T02:22:14.176Z,68.04
2022-10-28T02:24:51.055Z,68.03
2022-10-28T02:27:17.892Z,68.00
2022-10-28T02:30:00.303Z,68.06
2022-10-28T02:32:31.454Z,68.10
2022-10-28T02:34:59.387Z,68.10
2022-10-28T02:37:32.913Z,68.01
2022-10-28T02:40:06.973Z,68.13
2022-10-28T02:42:37.431Z,68.32
2022-10-28T02:45:16.933Z,68.31
2022-10-28T02:47:52.083Z,68.13
2022-10-28T02:50:24.989Z,68.20
2022-10-28T02:52:57.177Z,68.03
2022-10-28T02:55:30.781Z,68.00
2022-10-28T02:57:58.317Z,68.06
2022-10-28T03:00:25.262Z,68.09
2022-10-28T03:02:52.219Z,68.01
2022-10-28T03:05:19.227Z,68.01
2022-10-28T03:07:46.100Z,68.08
2022-10-28T03:10:12.941Z,68.06
2022-10-28T03:12:42.812Z,68.19
2022-10-28T03:15:10.119Z,68.07
2022-10-28T03:17:36.916Z,68.11
2022-10-28T03:20:03.949Z,67.82
2022-10-28T03:22:30.867Z,68.16
2022-10-28T03:24:57.691Z,68.17
2022-10-28T03:27:24.629Z,68.18
2022-10-28T03:29:51.411Z,68.24
2022-10-28T03:32:18.327Z,68.08
2022-10-28T03:34:45.265Z,68.18
2022-10-28T03:37:12.173Z,68.41
2022-10-28T03:39:38.988Z,68.03
2022-10-28T03:42:05.906Z,68.16
2022-10-28T03:44:32.716Z,68.05
2022-10-28T03:46:59.535Z,68.08
2022-10-28T03:49:26.419Z,68.18
2022-10-28T03:51:53.259Z,68.24
2022-10-28T03:54:20.131Z,68.10
2022-10-28T03:56:46.948Z,68.25
2022-10-28T03:59:16.332Z,68.20
2022-10-28T04:01:46.181Z,68.30
2022-10-28T04:04:13.105Z,68.20
2022-10-28T04:06:39.935Z,68.23
2022-10-28T04:09:06.748Z,68.36
2022-10-28T04:11:33.660Z,68.20
2022-10-28T04:14:00.501Z,68.26
2022-10-28T04:16:27.368Z,68.17
2022-10-28T04:18:54.194Z,68.24
2022-10-28T04:21:21.068Z,68.22
2022-10-28T04:23:47.921Z,68.10
2022-10-28T04:26:15.648Z,68.24
2022-10-28T04:28:42.538Z,68.24
2022-10-28T04:31:10.525Z,68.33
2022-10-28T04:33:37.359Z,68.32
2022-10-28T04:36:04.483Z,68.28
2022-10-28T04:38:31.352Z,68.30
2022-10-28T04:40:58.265Z,68.46
2022-10-28T04:43:25.163Z,68.26
2022-10-28T04:45:52.013Z,68.23
2022-10-28T04:48:18.857Z,68.54
2022-10-28T04:50:45.928Z,68.37
2022-10-28T04:53:13.474Z,68.41
2022-10-28T04:55:40.350Z,68.28
2022-10-28T04:58:07.271Z,68.30
2022-10-28T05:00:34.060Z,68.44
2022-10-28T05:03:04.289Z,68.18
2022-10-28T05:05:31.344Z,68.31
2022-10-28T05:07:58.433Z,68.39
2022-10-28T05:10:25.712Z,68.27
2022-10-28T05:12:52.561Z,68.57
2022-10-28T05:15:19.443Z,68.55
2022-10-28T05:17:47.592Z,68.57
2022-10-28T05:20:17.607Z,68.83
2022-10-28T05:22:54.077Z,69.18
2022-10-28T05:25:22.147Z,69.19
2022-10-28T05:27:49.054Z,69.23
2022-10-28T05:30:16.124Z,69.27
2022-10-28T05:32:43.049Z,69.02
2022-10-28T05:35:10.888Z,68.90
2022-10-28T05:37:38.134Z,68.93
2022-10-28T05:40:05.246Z,69.07
2022-10-28T05:42:32.063Z,69.11
2022-10-28T05:44:58.903Z,68.95
2022-10-28T05:47:25.856Z,69.00
2022-10-28T05:49:52.702Z,69.01
2022-10-28T05:52:19.536Z,69.01
2022-10-28T05:54:46.402Z,69.10
2022-10-28T05:57:13.448Z,69.10
2022-10-28T05:59:40.345Z,68.93
2022-10-28T06:02:14.202Z,68.98
2022-10-28T06:04:42.096Z,68.97
2022-10-28T06:07:09.189Z,69.00
2022-10-28T06:09:36.330Z,69.31
2022-10-28T06:12:01.758Z,69.53
2022-10-28T06:14:28.565Z,69.51
2022-10-28T06:16:55.534Z,69.49
2022-10-28T06:19:22.411Z,69.42
2022-10-28T06:21:49.299Z,69.56
2022-10-28T06:24:16.168Z,69.61
2022-10-28T06:26:43.088Z,69.86
2022-10-28T06:29:10.921Z,69.78
2022-10-28T06:31:39.323Z,69.73
2022-10-28T06:34:10.778Z,69.85
2022-10-28T06:36:38.488Z,69.88
2022-10-28T06:39:05.845Z,69.89
2022-10-28T06:41:33.630Z,69.91
2022-10-28T06:44:00.889Z,69.61
2022-10-28T06:46:28.199Z,69.69
2022-10-28T06:48:57.267Z,69.75
2022-10-28T06:51:24.721Z,69.45
2022-10-28T06:53:52.723Z,69.61
2022-10-28T06:56:19.679Z,69.75
2022-10-28T06:58:51.132Z,69.41
2022-10-28T07:01:18.922Z,69.61
2022-10-28T07:03:46.897Z,69.61
2022-10-28T07:09:01.367Z,69.51
2022-10-28T07:11:28.362Z,69.57
2022-10-28T07:13:55.278Z,69.71
2022-10-28T07:16:22.273Z,69.73
2022-10-28T07:18:49.332Z,69.58
2022-10-28T07:21:18.646Z,69.51
2022-10-28T07:23:47.696Z,69.28
2022-10-28T07:26:14.763Z,69.43
2022-10-28T07:28:44.940Z,69.17
2022-10-28T07:33:58.759Z,69.21
2022-10-28T07:36:25.993Z,69.18
2022-10-28T07:38:53.064Z,68.99
2022-10-28T07:41:21.489Z,69.16
2022-10-28T07:43:49.004Z,69.17
2022-10-28T07:46:17.098Z,69.18
2022-10-28T07:48:44.173Z,69.06
2022-10-28T07:51:14.427Z,68.93
2022-10-28T07:53:41.920Z,69.10
2022-10-28T07:56:13.464Z,69.01
2022-10-28T07:58:42.463Z,69.09
2022-10-28T08:01:10.704Z,69.27
2022-10-28T08:03:39.192Z,69.47
2022-10-28T08:06:12.572Z,69.24
2022-10-28T08:08:40.052Z,69.35
2022-10-28T08:11:15.261Z,69.35
2022-10-28T08:13:42.610Z,69.32
2022-10-28T08:16:10.069Z,69.31
2022-10-28T08:18:38.226Z,68.98
2022-10-28T08:21:07.492Z,69.22
2022-10-28T08:23:34.493Z,69.06
2022-10-28T08:26:02.401Z,69.08
2022-10-28T08:28:29.514Z,69.17
2022-10-28T08:31:08.665Z,69.11
2022-10-28T08:33:38.515Z,69.20
2022-10-28T08:36:07.078Z,69.07
2022-10-28T08:38:34.128Z,69.05
2022-10-28T08:41:16.106Z,69.01
2022-10-28T08:43:57.223Z,69.14
2022-10-28T08:46:42.716Z,69.03
2022-10-28T08:49:14.809Z,68.98
2022-10-28T08:52:03.910Z,69.00
2022-10-28T08:54:36.641Z,68.97
2022-10-28T08:57:12.559Z,68.96
2022-10-28T08:59:42.651Z,69.04
2022-10-28T09:02:33.525Z,69.08
2022-10-28T09:05:20.908Z,68.96
2022-10-28T09:07:48.212Z,69.07
2022-10-28T09:10:17.057Z,69.12
2022-10-28T09:13:11.700Z,68.89
2022-10-28T09:16:15.220Z,69.05
2022-10-28T09:18:59.579Z,69.13
2022-10-28T09:21:41.405Z,69.17
2022-10-28T09:24:20.568Z,69.25
2022-10-28T09:27:17.059Z,68.99
2022-10-28T09:30:07.607Z,69.19
2022-10-28T09:32:47.481Z,69.24
2022-10-28T09:35:18.208Z,69.33
2022-10-28T09:37:48.870Z,69.15
2022-10-28T09:40:18.858Z,69.17
2022-10-28T09:43:08.118Z,69.08
2022-10-28T09:45:40.413Z,68.97
2022-10-28T09:48:19.644Z,69.29
2022-10-28T09:50:51.188Z,69.41
2022-10-28T09:53:36.057Z,69.65
2022-10-28T09:58:35.548Z,69.54
2022-10-28T10:01:05.322Z,69.54
2022-10-28T10:03:33.159Z,69.55
2022-10-28T10:06:13.952Z,69.62
2022-10-28T10:08:42.371Z,69.57
2022-10-28T10:11:25.197Z,69.69
2022-10-28T10:13:53.256Z,70.05
2022-10-28T10:16:35.227Z,69.95
2022-10-28T10:19:06.668Z,70.08
2022-10-28T10:21:50.187Z,70.12
2022-10-28T10:24:33.888Z,70.15
2022-10-28T10:27:21.331Z,69.88
2022-10-28T10:29:50.747Z,69.87
2022-10-28T10:32:33.367Z,69.55
2022-10-28T10:35:18.579Z,69.71
2022-10-28T10:37:47.302Z,69.66
2022-10-28T10:40:31.467Z,69.59
2022-10-28T10:43:22.569Z,69.58
2022-10-28T10:45:59.157Z,69.62
2022-10-28T10:48:26.247Z,69.57
2022-10-28T10:50:54.986Z,69.59
2022-10-28T10:53:32.927Z,69.53
2022-10-28T10:56:03.965Z,69.56
2022-10-28T10:58:34.642Z,69.65
2022-10-28T11:01:06.088Z,69.63
2022-10-28T11:03:40.432Z,69.68
2022-10-28T11:06:23.116Z,69.82
2022-10-28T11:08:59.282Z,69.83
2022-10-28T11:11:40.313Z,69.84
2022-10-28T11:14:22.771Z,70.14
2022-10-28T11:16:51.083Z,70.06
2022-10-28T11:19:37.948Z,70.43
2022-10-28T11:22:23.669Z,70.40
2022-10-28T11:25:32.145Z,70.59
2022-10-28T11:28:13.656Z,70.72
2022-10-28T11:30:54.239Z,70.71
2022-10-28T11:33:39.183Z,70.73
2022-10-28T11:36:31.769Z,70.54
2022-10-28T11:39:26.268Z,70.39
2022-10-28T11:41:56.242Z,70.50
2022-10-28T11:47:30.033Z,70.14
2022-10-28T11:50:03.656Z,70.12
2022-10-28T11:52:52.370Z,70.04
2022-10-28T11:55:37.334Z,67.77
2022-10-28T11:58:21.453Z,67.85
2022-10-28T12:01:03.399Z,68.02
2022-10-28T12:03:54.272Z,68.91
2022-10-28T12:06:21.461Z,69.15
2022-10-28T12:08:48.328Z,69.30
2022-10-28T12:11:47.461Z,69.32
2022-10-28T12:14:32.899Z,69.21
2022-10-28T12:17:06.919Z,69.33
2022-10-28T12:19:40.189Z,69.42
2022-10-28T12:22:12.178Z,69.36
2022-10-28T12:24:43.560Z,69.49
2022-10-28T12:27:19.393Z,69.39
2022-10-28T12:29:51.760Z,69.19
2022-10-28T12:32:32.936Z,68.73
2022-10-28T12:35:03.342Z,69.07
2022-10-28T12:37:50.226Z,69.26
2022-10-28T12:40:21.519Z,69.19
2022-10-28T12:42:56.674Z,69.29
2022-10-28T12:45:24.442Z,69.03
2022-10-28T12:48:00.751Z,69.16
2022-10-28T12:50:52.409Z,69.22
2022-10-28T12:53:26.679Z,69.20
2022-10-28T12:56:01.868Z,68.81
2022-10-28T12:58:50.206Z,69.01
2022-10-28T13:01:19.885Z,68.83
2022-10-28T13:03:49.662Z,66.18
2022-10-28T13:06:29.855Z,64.17
2022-10-28T13:09:13.654Z,63.29
2022-10-28T13:12:05.455Z,63.46
2022-10-28T13:15:03.064Z,64.57
2022-10-28T13:17:52.027Z,66.08
2022-10-28T13:20:41.758Z,66.86
2022-10-28T13:23:22.233Z,67.05
2022-10-28T13:26:06.905Z,67.41
2022-10-28T13:28:37.279Z,67.57
2022-10-28T13:31:07.394Z,67.58
2022-10-28T13:33:38.358Z,67.65
2022-10-28T13:36:30.864Z,67.77
2022-10-28T13:39:02.502Z,67.69
2022-10-28T13:41:37.237Z,67.75
2022-10-28T13:44:10.823Z,67.86
2022-10-28T13:47:00.148Z,67.87
2022-10-28T13:49:34.335Z,68.02
2022-10-28T13:52:07.136Z,66.14
2022-10-28T13:54:39.839Z,65.67
2022-10-28T13:57:13.944Z,66.01
2022-10-28T14:03:24.306Z,66.99
2022-10-28T14:05:52.800Z,67.07
2022-10-28T14:08:33.893Z,67.02
2022-10-28T14:11:23.356Z,66.83
2022-10-28T14:14:02.018Z,66.84
2022-10-28T14:16:29.501Z,66.75
2022-10-28T14:19:04.601Z,66.77
2022-10-28T14:22:01.508Z,66.48
2022-10-28T14:24:41.003Z,66.52
2022-10-28T14:27:15.530Z,66.46
2022-10-28T14:29:56.514Z,66.28
2022-10-28T14:32:32.562Z,66.20
2022-10-28T14:35:13.183Z,66.51
2022-10-28T14:37:40.131Z,66.30
2022-10-28T14:40:53.270Z,66.15
2022-10-28T14:43:30.672Z,66.15
2022-10-28T14:46:25.222Z,66.00
2022-10-28T14:48:56.048Z,66.06
2022-10-28T14:51:44.122Z,66.10
2022-10-28T14:54:17.914Z,66.00
2022-10-28T14:56:45.775Z,66.26
2022-10-28T14:59:37.002Z,66.08
2022-10-28T15:02:18.943Z,65.93
2022-10-28T15:04:49.025Z,66.19
2022-10-28T15:07:19.722Z,65.76
2022-10-28T15:09:53.845Z,65.72
2022-10-28T15:12:22.986Z,65.61
2022-10-28T15:14:52.613Z,65.44
2022-10-28T15:17:28.343Z,65.50
2022-10-28T15:20:01.039Z,65.17
2022-10-28T15:22:33.585Z,64.95
2022-10-28T15:25:07.079Z,64.90
2022-10-28T15:27:36.488Z,64.98
2022-10-28T15:30:23.610Z,64.97
2022-10-28T15:32:55.078Z,64.89
2022-10-28T15:35:31.231Z,64.84
2022-10-28T15:38:01.345Z,65.07
2022-10-28T15:40:36.155Z,63.85
2022-10-28T15:43:08.047Z,63.72
2022-10-28T15:45:42.238Z,63.87
2022-10-28T15:48:15.595Z,64.14
2022-10-28T15:50:42.755Z,63.93
2022-10-28T15:53:13.209Z,64.03
2022-10-28T15:58:33.939Z,64.25
2022-10-28T16:01:01.032Z,63.60
2022-10-28T16:03:40.336Z,63.56
2022-10-28T16:06:22.021Z,63.70
2022-10-28T16:09:18.572Z,63.69
2022-10-28T16:11:50.384Z,64.02
2022-10-28T16:14:38.868Z,63.81
2022-10-28T16:17:09.869Z,64.10
2022-10-28T16:19:39.694Z,64.06
2022-10-28T16:22:07.529Z,64.15
2022-10-28T16:24:34.581Z,63.51
2022-10-28T16:27:22.031Z,63.63
2022-10-28T16:29:50.254Z,63.42
2022-10-28T16:32:25.411Z,63.18
2022-10-28T16:34:52.420Z,63.44
2022-10-28T16:37:28.632Z,63.49
2022-10-28T16:39:56.177Z,63.59
2022-10-28T16:42:23.715Z,63.77
2022-10-28T16:44:52.078Z,63.66
2022-10-28T16:47:21.605Z,63.44
2022-10-28T16:49:54.515Z,63.35
2022-10-28T16:52:27.408Z,63.34
2022-10-28T16:54:54.400Z,63.30
2022-10-28T16:57:21.827Z,63.19
2022-10-28T16:59:49.279Z,63.10
2022-10-28T17:02:31.412Z,62.94
2022-10-28T17:04:59.743Z,62.74
2022-10-28T17:07:28.264Z,62.75
2022-10-28T17:09:55.369Z,62.93
2022-10-28T17:12:25.241Z,62.65
2022-10-28T17:14:52.317Z,62.66
2022-10-28T17:17:19.703Z,62.81
2022-10-28T17:19:47.053Z,62.77
2022-10-28T17:22:14.566Z,62.63
2022-10-28T17:24:41.620Z,62.44
2022-10-28T17:27:08.729Z,62.42
2022-10-28T17:29:35.802Z,62.29
2022-10-28T17:32:02.716Z,62.45
2022-10-28T17:34:29.861Z,62.63
2022-10-28T17:36:57.024Z,62.61
2022-10-28T17:39:26.463Z,62.56
2022-10-28T17:41:54.342Z,62.75
2022-10-28T17:44:21.830Z,62.56
2022-10-28T17:46:49.960Z,62.67
2022-10-28T17:49:17.105Z,62.72
2022-10-28T17:51:44.766Z,62.93
2022-10-28T17:54:13.086Z,62.75
2022-10-28T17:56:42.480Z,63.56
2022-10-28T17:59:09.737Z,62.89
2022-10-28T18:01:37.464Z,63.08
2022-10-28T18:04:05.884Z,62.85
2022-10-28T18:06:33.189Z,63.29
2022-10-28T18:09:00.197Z,62.94
2022-10-28T18:11:27.761Z,62.81
2022-10-28T18:13:57.140Z,62.98
2022-10-28T18:16:29.992Z,62.55
2022-10-28T18:18:57.134Z,62.78
2022-10-28T18:21:27.058Z,62.54
2022-10-28T18:24:02.373Z,62.48
2022-10-28T18:26:32.384Z,62.63
2022-10-28T18:29:00.226Z,62.56
2022-10-28T18:31:27.543Z,62.42
2022-10-28T18:33:55.456Z,62.53
2022-10-28T18:36:24.391Z,62.25
2022-10-28T18:38:52.344Z,62.19
2022-10-28T18:41:22.471Z,62.12
2022-10-28T18:43:57.129Z,61.84
2022-10-28T18:46:26.029Z,61.25
2022-10-28T18:48:53.798Z,61.86
2022-10-28T18:51:22.328Z,61.83
2022-10-28T18:53:49.957Z,61.67
2022-10-28T18:56:20.485Z,61.45
2022-10-28T18:58:49.895Z,61.56
2022-10-28T19:01:21.021Z,61.57
2022-10-28T19:03:55.532Z,61.43
2022-10-28T19:06:25.888Z,61.81
2022-10-28T19:08:58.622Z,61.41
2022-10-28T19:11:31.578Z,61.81
2022-10-28T19:14:00.478Z,61.51
2022-10-28T19:16:28.965Z,61.60
2022-10-28T19:18:58.223Z,61.20
2022-10-28T19:21:26.765Z,60.56
2022-10-28T19:23:54.975Z,60.31
2022-10-28T19:26:23.935Z,60.48
2022-10-28T19:28:52.159Z,60.04
2022-10-28T19:31:22.812Z,60.17
2022-10-28T19:33:50.435Z,59.90
2022-10-28T19:36:23.582Z,60.07
2022-10-28T19:38:58.372Z,60.12
2022-10-28T19:41:28.040Z,60.06
2022-10-28T19:43:58.462Z,59.64
2022-10-28T19:46:27.122Z,59.81
2022-10-28T19:48:58.230Z,59.94
2022-10-28T19:51:30.832Z,59.83
2022-10-28T19:54:13.160Z,60.25
2022-10-28T19:56:40.854Z,60.01
2022-10-28T19:59:08.227Z,60.10
2022-10-28T20:01:38.392Z,59.97
2022-10-28T20:04:06.691Z,60.15
2022-10-28T20:06:36.600Z,59.95
2022-10-28T20:09:04.571Z,60.25
2022-10-28T20:11:34.081Z,60.15
2022-10-28T20:14:04.667Z,60.35
2022-10-28T20:16:33.662Z,60.14
2022-10-28T20:19:00.943Z,60.46
2022-10-28T20:21:33.248Z,60.35
2022-10-28T20:24:01.308Z,60.59
2022-10-28T20:26:31.047Z,61.25
2022-10-28T20:29:00.039Z,60.62
2022-10-28T20:31:32.251Z,60.62
2022-10-28T20:34:04.939Z,60.65
2022-10-28T20:36:42.343Z,60.56
2022-10-28T20:39:17.905Z,60.64
2022-10-28T20:41:48.526Z,60.64
2022-10-28T20:44:22.029Z,60.89
2022-10-28T20:46:51.981Z,61.13
2022-10-28T20:49:20.815Z,61.29
2022-10-28T20:51:50.429Z,61.30
2022-10-28T20:54:17.585Z,61.58
2022-10-28T20:56:44.935Z,61.50
2022-10-28T20:59:12.135Z,61.67
2022-10-28T21:01:41.508Z,61.76
2022-10-28T21:04:12.176Z,62.00
2022-10-28T21:06:40.619Z,61.95
2022-10-28T21:09:09.119Z,61.98
2022-10-28T21:11:36.827Z,62.11
2022-10-28T21:14:03.941Z,62.30
2022-10-28T21:16:31.720Z,62.33
2022-10-28T21:18:59.678Z,62.20
2022-10-28T21:21:27.943Z,62.58
2022-10-28T21:26:22.403Z,62.62
2022-10-28T21:28:52.334Z,62.53
2022-10-28T21:31:21.089Z,62.85
2022-10-28T21:36:35.498Z,62.78
2022-10-28T21:39:02.436Z,62.87
2022-10-28T21:41:29.456Z,62.74
2022-10-28T21:43:56.751Z,63.15
2022-10-28T21:46:24.787Z,63.04
2022-10-28T21:48:53.024Z,63.26
2022-10-28T21:51:20.062Z,63.09
2022-10-28T21:53:47.199Z,63.15
2022-10-28T21:56:18.156Z,63.30
2022-10-28T21:58:47.470Z,63.45
2022-10-28T22:01:15.964Z,63.43
2022-10-28T22:03:43.482Z,63.54
2022-10-28T22:06:10.672Z,63.56
2022-10-28T22:08:37.930Z,63.61
2022-10-28T22:11:07.324Z,63.71
2022-10-28T22:13:34.838Z,63.78
2022-10-28T22:16:04.861Z,63.88
2022-10-28T22:18:33.803Z,63.84
2022-10-28T22:21:06.297Z,63.95
2022-10-28T22:23:33.433Z,64.03
2022-10-28T22:26:09.206Z,63.98
2022-10-28T22:28:36.193Z,64.11
2022-10-28T22:31:06.530Z,64.12
2022-10-28T22:33:34.535Z,64.29
2022-10-28T22:36:04.688Z,64.20
2022-10-28T22:38:31.879Z,64.41
2022-10-28T22:41:19.647Z,64.25
2022-10-28T22:43:50.615Z,64.25
2022-10-28T22:46:18.586Z,64.28
2022-10-28T22:48:46.644Z,64.60
2022-10-28T22:51:14.080Z,64.48
2022-10-28T22:53:41.293Z,64.48
2022-10-28T22:56:11.594Z,64.49
2022-10-28T22:58:38.489Z,64.54
2022-10-28T23:01:09.453Z,64.57
2022-10-28T23:03:38.355Z,64.79
2022-10-28T23:06:06.003Z,64.83
2022-10-28T23:08:33.393Z,64.72
2022-10-28T23:11:00.603Z,64.85
2022-10-28T23:13:27.801Z,64.87
2022-10-28T23:15:55.504Z,64.87
2022-10-28T23:18:27.337Z,64.96
2022-10-28T23:20:54.247Z,65.01
2022-10-28T23:23:21.398Z,65.02
2022-10-28T23:25:57.583Z,64.99
2022-10-28T23:28:24.758Z,65.01
2022-10-28T23:30:51.669Z,65.03
2022-10-28T23:33:18.623Z,65.14
2022-10-28T23:35:45.496Z,65.11
2022-10-28T23:38:16.695Z,65.09
2022-10-28T23:40:43.569Z,65.15
2022-10-28T23:43:10.422Z,65.09
2022-10-28T23:45:39.216Z,65.17
2022-10-28T23:48:06.265Z,65.28
2022-10-28T23:50:33.212Z,65.30
2022-10-28T23:53:00.104Z,65.30
2022-10-28T23:55:26.935Z,65.34
2022-10-28T23:57:56.971Z,65.45
